Terminal Aerodrome Forecast
Issued by NWS

Home | Current Version | Previous Version | Text Only | Print | Product List | Glossary Off
Versions: 1 2 3 4 5 6 7 8 9 10 11 12 13 14 15

604
FTUS42 KMHX 300858 AAA
TAFOAJ
TAF AMD
KOAJ 300858Z 3009/0106 VRB03KT 6SM BR SCT003
      TEMPO 3009/3011 1SM BR BKN003
     FM301100 VRB04KT 6SM BR VCSH BKN007
     FM301400 15005KT P6SM VCSH SCT035 BKN100
     FM301700 16006KT P6SM SCT050
     FM010400 VRB04KT 3SM BR SCT250
      AMD LTD TO CLD VIS AND WIND=

USA.gov is the U.S. government's official web portal to all federal, state and local government web resources and services.